createdAt,value
2019-02-06T00:03:36.935Z,20.36
2019-02-06T00:08:40.737Z,20.36
2019-02-06T00:13:44.906Z,20.32
2019-02-06T00:18:48.747Z,20.31
2019-02-06T00:23:52.625Z,20.34
2019-02-06T00:28:56.435Z,20.31
2019-02-06T00:34:00.252Z,20.31
2019-02-06T00:39:06.548Z,20.26
2019-02-06T00:44:10.374Z,20.30
2019-02-06T00:49:48.423Z,20.30
2019-02-06T00:54:52.219Z,20.26
2019-02-06T00:59:58.375Z,20.26
2019-02-06T01:05:01.560Z,20.29
2019-02-06T01:10:07.123Z,20.23
2019-02-06T01:15:11.494Z,20.28
2019-02-06T01:20:16.151Z,20.34
2019-02-06T01:25:19.954Z,20.37
2019-02-06T01:30:25.439Z,20.36
2019-02-06T01:35:29.238Z,20.41
2019-02-06T01:40:33.038Z,20.38
2019-02-06T01:45:36.820Z,20.38
2019-02-06T01:50:40.631Z,20.45
2019-02-06T01:55:44.436Z,20.42
2019-02-06T02:00:48.237Z,20.42
2019-02-06T02:06:01.739Z,20.40
2019-02-06T02:10:57.554Z,20.42
2019-02-06T02:16:01.353Z,20.42
2019-02-06T02:21:05.189Z,20.39
2019-02-06T02:26:08.995Z,20.40
2019-02-06T02:31:13.173Z,20.41
2019-02-06T02:36:16.986Z,20.41
2019-02-06T02:41:20.807Z,20.43
2019-02-06T02:46:24.608Z,20.38
2019-02-06T02:51:28.764Z,20.38
2019-02-06T02:56:32.585Z,20.41
2019-02-06T03:01:53.516Z,20.40
2019-02-06T03:06:57.325Z,20.38
2019-02-06T03:12:01.130Z,20.41
2019-02-06T03:17:04.920Z,20.39
2019-02-06T03:22:08.715Z,20.39
2019-02-06T03:27:12.594Z,20.34
2019-02-06T03:32:16.379Z,20.36
2019-02-06T03:37:20.162Z,20.36
2019-02-06T03:42:23.953Z,20.35
2019-02-06T03:47:27.735Z,20.35
2019-02-06T03:52:31.906Z,20.33
2019-02-06T03:57:35.702Z,20.36
2019-02-06T04:02:39.509Z,20.36
2019-02-06T04:07:43.307Z,20.36
2019-02-06T04:12:47.102Z,20.33
2019-02-06T04:17:54.316Z,20.25
2019-02-06T04:22:56.826Z,20.25
2019-02-06T04:28:00.666Z,20.21
2019-02-06T04:33:04.486Z,20.19
2019-02-06T04:38:08.285Z,20.11
2019-02-06T04:43:12.089Z,20.11
2019-02-06T04:48:15.905Z,20.05
2019-02-06T04:53:19.691Z,20.05
2019-02-06T04:58:23.488Z,20.01
2019-02-06T05:03:27.304Z,19.98
2019-02-06T05:08:31.093Z,19.92
2019-02-06T05:13:34.955Z,19.92
2019-02-06T05:18:38.742Z,19.86
2019-02-06T05:23:42.608Z,19.89
2019-02-06T05:28:46.393Z,19.88
2019-02-06T05:33:50.428Z,19.90
2019-02-06T05:38:54.280Z,19.88
2019-02-06T05:43:58.300Z,19.85
2019-02-06T05:49:02.115Z,19.84
2019-02-06T05:54:05.929Z,19.83
2019-02-06T05:59:10.096Z,19.83
2019-02-06T06:04:13.895Z,19.81
2019-02-06T06:09:17.692Z,19.81
2019-02-06T06:14:21.485Z,19.79
2019-02-06T06:19:25.280Z,19.79
2019-02-06T06:24:29.080Z,19.79
2019-02-06T06:29:32.869Z,19.74
2019-02-06T06:34:36.683Z,19.74
2019-02-06T06:39:40.498Z,19.71
2019-02-06T06:44:44.283Z,19.69
2019-02-06T06:49:48.084Z,19.69
2019-02-06T06:54:51.869Z,19.65
2019-02-06T06:59:55.778Z,19.64
2019-02-06T07:04:59.554Z,19.60
2019-02-06T07:10:03.776Z,19.57
2019-02-06T07:15:10.085Z,19.59
2019-02-06T07:20:15.133Z,19.60
2019-02-06T07:25:19.648Z,19.62
2019-02-06T07:30:25.751Z,19.62
2019-02-06T07:35:29.569Z,19.60
2019-02-06T07:40:33.773Z,19.60
2019-02-06T07:45:37.596Z,19.60
2019-02-06T07:50:41.399Z,19.60
2019-02-06T07:55:45.207Z,12.32
2019-02-06T08:00:49.010Z,14.11
2019-02-06T08:05:53.239Z,17.31
2019-02-06T08:10:57.060Z,18.87
2019-02-06T08:16:00.879Z,18.87
2019-02-06T08:21:04.771Z,19.98
2019-02-06T08:26:08.577Z,19.98
2019-02-06T08:31:12.959Z,20.21
2019-02-06T08:36:16.828Z,20.48
2019-02-06T08:41:20.643Z,20.52
2019-02-06T08:46:24.458Z,20.40
2019-02-06T08:51:28.258Z,20.36
2019-02-06T08:56:32.615Z,20.30
2019-02-06T09:01:36.480Z,20.32
2019-02-06T09:06:40.284Z,20.24
2019-02-06T09:11:44.090Z,20.30
2019-02-06T09:16:47.936Z,20.40
2019-02-06T09:21:52.047Z,20.40
2019-02-06T09:26:55.950Z,20.57
2019-02-06T09:31:59.781Z,20.66
2019-02-06T09:37:05.194Z,20.66
2019-02-06T09:42:09.138Z,20.55
2019-02-06T09:47:13.310Z,20.55
2019-02-06T09:52:17.095Z,20.51
2019-02-06T09:57:20.897Z,20.24
2019-02-06T10:02:24.684Z,20.30
2019-02-06T10:07:28.474Z,20.40
2019-02-06T10:12:32.643Z,20.40
2019-02-06T10:17:36.437Z,20.60
2019-02-06T10:22:40.235Z,20.65
2019-02-06T10:27:44.021Z,20.65
2019-02-06T10:32:47.879Z,20.58
2019-02-06T10:37:51.951Z,20.48
2019-02-06T10:42:55.741Z,20.37
2019-02-06T10:47:59.529Z,20.37
2019-02-06T10:53:03.327Z,20.37
2019-02-06T10:58:07.192Z,20.38
2019-02-06T11:03:11.368Z,20.52
2019-02-06T11:08:15.164Z,20.52
2019-02-06T11:13:18.962Z,20.57
2019-02-06T11:18:22.780Z,20.61
2019-02-06T11:23:26.597Z,20.69
2019-02-06T11:28:30.771Z,20.68
2019-02-06T11:33:34.567Z,20.69
2019-02-06T11:38:38.344Z,20.69
2019-02-06T11:43:42.138Z,20.61
2019-02-06T11:48:45.925Z,20.50
2019-02-06T11:53:49.979Z,20.50
2019-02-06T11:58:53.772Z,20.58
2019-02-06T12:03:57.649Z,20.50
2019-02-06T12:09:01.429Z,20.43
2019-02-06T12:14:05.336Z,20.35
2019-02-06T12:19:09.605Z,20.43
2019-02-06T12:24:13.464Z,20.64
2019-02-06T12:29:17.360Z,20.85
2019-02-06T12:34:21.285Z,20.85
2019-02-06T12:39:25.254Z,20.87
2019-02-06T12:44:29.746Z,20.87
2019-02-06T12:49:33.563Z,20.85
2019-02-06T12:54:37.438Z,20.77
2019-02-06T12:59:42.295Z,20.74
2019-02-06T13:04:46.102Z,20.74
2019-02-06T13:09:49.898Z,20.68
2019-02-06T13:14:53.703Z,20.66
2019-02-06T13:19:57.523Z,20.67
2019-02-06T13:25:01.709Z,20.67
2019-02-06T13:30:09.263Z,20.63
2019-02-06T13:35:13.699Z,20.54
2019-02-06T13:40:19.063Z,20.54
2019-02-06T13:45:27.905Z,20.57
2019-02-06T13:50:31.730Z,20.57
2019-02-06T13:55:35.517Z,20.51
2019-02-06T14:00:40.353Z,20.57
2019-02-06T14:05:46.767Z,20.65
2019-02-06T14:10:59.877Z,20.74
2019-02-06T14:15:55.186Z,20.86
2019-02-06T14:20:59.023Z,20.86
2019-02-06T14:26:26.880Z,20.90
2019-02-06T14:31:41.834Z,20.92
2019-02-06T14:37:09.023Z,20.81
2019-02-06T14:43:05.845Z,20.71
2019-02-06T14:48:35.220Z,20.71
2019-02-06T14:54:07.688Z,20.65
2019-02-06T14:59:35.063Z,20.65
2019-02-06T15:04:59.255Z,20.68
2019-02-06T15:10:32.662Z,20.45
2019-02-06T15:15:54.122Z,20.34
2019-02-06T15:21:36.633Z,20.34
2019-02-06T15:27:11.375Z,20.30
2019-02-06T15:32:54.976Z,20.35
2019-02-06T15:38:48.137Z,20.35
2019-02-06T15:44:18.383Z,20.43
2019-02-06T15:49:33.458Z,20.43
2019-02-06T15:54:53.265Z,20.53
2019-02-06T16:00:39.378Z,20.53
2019-02-06T16:06:27.290Z,20.53
2019-02-06T16:11:46.353Z,20.55
2019-02-06T16:17:49.543Z,20.50
2019-02-06T16:23:22.782Z,20.50
2019-02-06T16:29:03.840Z,20.50
2019-02-06T16:34:24.673Z,20.47
2019-02-06T16:39:44.066Z,20.48
2019-02-06T16:44:57.280Z,20.50
2019-02-06T16:50:31.097Z,20.53
2019-02-06T16:56:03.711Z,20.46
2019-02-06T17:01:59.861Z,20.64
2019-02-06T17:08:01.334Z,20.65
2019-02-06T17:14:01.276Z,20.82
2019-02-06T17:20:08.164Z,20.82
2019-02-06T17:31:17.150Z,21.85
2019-02-06T17:37:11.236Z,21.88
2019-02-06T17:42:45.003Z,21.88
2019-02-06T17:48:07.661Z,21.94
2019-02-06T17:53:24.285Z,21.87
2019-02-06T17:58:31.276Z,21.88
2019-02-06T18:03:42.461Z,21.95
2019-02-06T18:08:56.073Z,21.95
2019-02-06T18:13:51.856Z,21.94
2019-02-06T18:18:56.148Z,21.94
2019-02-06T18:24:00.125Z,21.91
2019-02-06T18:29:04.408Z,21.87
2019-02-06T18:34:09.939Z,21.87
2019-02-06T18:39:16.924Z,21.96
2019-02-06T18:44:21.215Z,21.96
2019-02-06T18:49:25.173Z,21.86
2019-02-06T18:54:29.219Z,21.84
2019-02-06T18:59:33.864Z,21.84
2019-02-06T19:04:40.912Z,21.90
2019-02-06T19:09:45.485Z,21.94
2019-02-06T19:14:49.765Z,22.04
2019-02-06T19:19:54.624Z,22.00
2019-02-06T19:24:59.562Z,22.05
2019-02-06T19:30:06.992Z,22.02
2019-02-06T19:35:12.291Z,22.02
2019-02-06T19:40:19.590Z,21.98
2019-02-06T19:45:27.504Z,21.95
2019-02-06T19:50:36.309Z,21.95
2019-02-06T19:55:41.697Z,21.99
2019-02-06T20:00:48.116Z,22.00
2019-02-06T20:05:53.813Z,21.98
2019-02-06T20:10:59.112Z,22.04
2019-02-06T20:16:05.552Z,22.04
2019-02-06T20:21:11.981Z,21.95
2019-02-06T20:26:17.120Z,21.82
2019-02-06T20:31:23.695Z,21.79
2019-02-06T20:36:30.352Z,21.79
2019-02-06T20:41:37.023Z,21.69
2019-02-06T20:46:43.551Z,21.50
2019-02-06T20:51:48.896Z,21.46
2019-02-06T20:56:54.545Z,21.39
2019-02-06T21:02:00.220Z,21.37
2019-02-06T21:07:06.397Z,21.37
2019-02-06T21:12:12.370Z,21.27
2019-02-06T21:17:17.308Z,21.20
2019-02-06T21:22:22.299Z,21.16
2019-02-06T21:27:26.095Z,21.16
2019-02-06T21:32:30.285Z,21.03
2019-02-06T21:37:34.109Z,21.14
2019-02-06T21:42:37.951Z,21.14
2019-02-06T21:47:41.870Z,20.99
2019-02-06T21:52:45.670Z,20.99
2019-02-06T21:57:49.850Z,20.90
2019-02-06T22:02:53.630Z,20.89
2019-02-06T22:07:57.421Z,20.89
2019-02-06T22:13:01.206Z,20.89
2019-02-06T22:18:05.036Z,20.83
2019-02-06T22:23:08.871Z,20.83
2019-02-06T22:28:12.698Z,20.78
2019-02-06T22:33:16.486Z,20.81
2019-02-06T22:38:20.298Z,20.82
2019-02-06T22:43:24.103Z,20.82
2019-02-06T22:48:27.896Z,20.73
2019-02-06T22:53:31.707Z,20.75
2019-02-06T22:58:35.523Z,20.75
2019-02-06T23:03:41.965Z,20.70
2019-02-06T23:08:45.788Z,20.70
2019-02-06T23:13:49.582Z,20.76
2019-02-06T23:18:53.393Z,20.76
2019-02-06T23:23:57.490Z,20.71
2019-02-06T23:29:01.298Z,20.64
2019-02-06T23:34:05.528Z,20.67
2019-02-06T23:39:15.479Z,20.70
2019-02-06T23:44:28.569Z,20.63
2019-02-06T23:49:24.909Z,20.63
2019-02-06T23:54:28.728Z,20.67
2019-02-06T23:59:32.541Z,20.60
